createdAt,value
2022-10-05T00:00:45.526Z,2.90
2022-10-05T00:03:16.248Z,2.97
2022-10-05T00:05:47.261Z,3.63
2022-10-05T00:08:17.062Z,3.00
2022-10-05T00:10:46.843Z,3.17
2022-10-05T00:13:17.675Z,3.17
2022-10-05T00:15:46.849Z,1.90
2022-10-05T00:18:19.071Z,2.33
2022-10-05T00:20:48.661Z,2.43
2022-10-05T00:23:20.634Z,2.73
2022-10-05T00:25:49.859Z,3.50
2022-10-05T00:28:20.453Z,2.87
2022-10-05T00:30:49.668Z,3.47
2022-10-05T00:33:20.014Z,3.30
2022-10-05T00:35:49.079Z,2.07
2022-10-05T00:38:19.876Z,2.30
2022-10-05T00:40:56.564Z,2.13
2022-10-05T00:43:43.481Z,2.50
2022-10-05T00:46:19.280Z,3.70
2022-10-05T00:48:53.474Z,3.43
2022-10-05T00:51:26.633Z,2.57
2022-10-05T00:54:02.165Z,2.77
2022-10-05T00:56:40.477Z,2.20
2022-10-05T00:59:14.166Z,2.97
2022-10-05T01:01:46.411Z,2.33
2022-10-05T01:04:20.653Z,3.30
2022-10-05T01:06:54.887Z,2.70
2022-10-05T01:09:28.888Z,2.77
2022-10-05T01:12:05.100Z,2.73
2022-10-05T01:14:36.940Z,2.37
2022-10-05T01:17:08.262Z,3.33
2022-10-05T01:19:47.944Z,3.53
2022-10-05T01:22:24.258Z,1.53
2022-10-05T01:25:00.052Z,2.07
2022-10-05T01:27:37.428Z,2.43
2022-10-05T01:30:09.016Z,2.57
2022-10-05T01:32:41.342Z,2.37
2022-10-05T01:35:18.430Z,1.73
2022-10-05T01:37:53.575Z,2.30
2022-10-05T01:40:25.891Z,1.77
2022-10-05T01:43:03.790Z,3.03
2022-10-05T01:45:36.396Z,2.53
2022-10-05T01:48:10.368Z,2.00
2022-10-05T01:50:46.558Z,2.90
2022-10-05T01:53:22.696Z,2.23
2022-10-05T01:55:54.649Z,3.40
2022-10-05T01:58:32.366Z,3.13
2022-10-05T02:01:04.426Z,2.97
2022-10-05T02:03:37.977Z,2.80
2022-10-05T02:06:12.744Z,3.30
2022-10-05T02:08:46.352Z,3.53
2022-10-05T02:11:16.527Z,2.03
2022-10-05T02:13:48.850Z,2.90
2022-10-05T02:16:19.332Z,3.37
2022-10-05T02:18:52.194Z,3.70
2022-10-05T02:21:21.799Z,2.70
2022-10-05T02:23:53.613Z,1.53
2022-10-05T02:26:27.015Z,3.60
2022-10-05T02:28:59.021Z,2.90
2022-10-05T02:31:32.457Z,3.07
2022-10-05T02:34:19.898Z,3.00
2022-10-05T02:36:49.743Z,3.90
2022-10-05T02:39:21.650Z,2.67
2022-10-05T02:41:53.998Z,3.97
2022-10-05T02:44:29.747Z,2.60
2022-10-05T02:47:02.992Z,2.87
2022-10-05T02:49:36.920Z,2.37
2022-10-05T02:52:08.907Z,4.13
2022-10-05T02:54:44.082Z,3.30
2022-10-05T02:57:22.095Z,2.70
2022-10-05T02:59:55.933Z,3.30
2022-10-05T03:02:26.851Z,3.53
2022-10-05T03:04:58.925Z,2.93
2022-10-05T03:07:31.390Z,2.27
2022-10-05T03:10:03.126Z,4.03
2022-10-05T03:12:49.321Z,3.60
2022-10-05T03:15:43.950Z,2.50
2022-10-05T03:18:18.000Z,3.70
2022-10-05T03:20:51.000Z,2.60
2022-10-05T03:23:24.821Z,2.60
2022-10-05T03:26:06.352Z,3.87
2022-10-05T03:28:38.269Z,3.57
2022-10-05T03:31:09.288Z,4.43
2022-10-05T03:33:45.242Z,2.30
2022-10-05T03:36:18.757Z,3.53
2022-10-05T03:38:50.854Z,4.13
2022-10-05T03:41:21.766Z,2.77
2022-10-05T03:44:14.779Z,3.13
2022-10-05T03:47:00.336Z,2.80
2022-10-05T03:49:35.132Z,3.70
2022-10-05T03:52:09.161Z,3.00
2022-10-05T03:54:40.637Z,2.70
2022-10-05T03:57:12.287Z,2.43
2022-10-05T03:59:53.725Z,1.93
2022-10-05T04:02:25.303Z,2.80
2022-10-05T04:04:58.674Z,2.93
2022-10-05T04:07:34.535Z,3.50
2022-10-05T04:10:05.482Z,3.13
2022-10-05T04:12:38.204Z,2.93
2022-10-05T04:15:13.112Z,3.33
2022-10-05T04:17:47.258Z,2.53
2022-10-05T04:20:19.743Z,2.27
2022-10-05T04:22:52.308Z,2.20
2022-10-05T04:25:23.832Z,2.47
2022-10-05T04:27:55.176Z,2.60
2022-10-05T04:30:25.094Z,2.80
2022-10-05T04:32:56.064Z,2.50
2022-10-05T04:35:42.398Z,2.40
2022-10-05T04:38:21.559Z,2.87
2022-10-05T04:40:56.612Z,2.93
2022-10-05T04:43:30.074Z,2.70
2022-10-05T04:46:06.421Z,3.20
2022-10-05T04:48:46.414Z,2.77
2022-10-05T04:51:23.235Z,2.43
2022-10-05T04:53:58.477Z,2.40
2022-10-05T04:56:32.325Z,2.70
2022-10-05T04:59:19.151Z,3.00
2022-10-05T05:01:59.844Z,2.47
2022-10-05T05:04:51.467Z,3.90
2022-10-05T05:07:28.686Z,2.33
2022-10-05T05:10:06.760Z,3.43
2022-10-05T05:12:42.970Z,3.40
2022-10-05T05:15:20.453Z,4.10
2022-10-05T05:17:52.477Z,3.33
2022-10-05T05:20:24.264Z,2.63
2022-10-05T05:22:55.580Z,4.13
2022-10-05T05:25:37.401Z,3.07
2022-10-05T05:28:12.485Z,3.30
2022-10-05T05:30:45.546Z,2.90
2022-10-05T05:33:19.967Z,2.80
2022-10-05T05:36:22.146Z,3.03
2022-10-05T05:38:57.778Z,1.70
2022-10-05T05:41:33.072Z,3.40
2022-10-05T05:44:06.145Z,3.67
2022-10-05T05:47:02.223Z,3.20
2022-10-05T05:49:29.332Z,3.80
2022-10-05T05:52:00.623Z,2.63
2022-10-05T05:54:33.229Z,2.60
2022-10-05T05:57:11.323Z,2.87
2022-10-05T05:59:46.163Z,3.50
2022-10-05T06:02:17.254Z,2.93
2022-10-05T06:04:48.074Z,1.93
2022-10-05T06:07:18.983Z,2.43
2022-10-05T06:09:49.709Z,2.03
2022-10-05T06:12:23.411Z,3.07
2022-10-05T06:14:55.476Z,2.57
2022-10-05T06:17:26.845Z,2.47
2022-10-05T06:20:02.591Z,3.10
2022-10-05T06:22:38.199Z,3.10
2022-10-05T06:25:12.474Z,2.70
2022-10-05T06:28:00.079Z,2.67
2022-10-05T06:30:31.993Z,3.80
2022-10-05T06:33:07.818Z,2.67
2022-10-05T06:35:48.311Z,2.67
2022-10-05T06:38:41.156Z,2.77
2022-10-05T06:41:14.458Z,2.40
2022-10-05T06:43:59.906Z,2.30
2022-10-05T06:46:31.775Z,2.07
2022-10-05T06:49:19.085Z,2.30
2022-10-05T06:51:52.559Z,3.37
2022-10-05T06:54:30.072Z,2.23
2022-10-05T06:57:03.572Z,2.97
2022-10-05T06:59:38.731Z,2.93
2022-10-05T07:02:10.664Z,2.00
2022-10-05T07:04:51.134Z,2.73
2022-10-05T07:07:25.905Z,2.70
2022-10-05T07:10:04.008Z,2.70
2022-10-05T07:12:38.896Z,2.67
2022-10-05T07:15:21.744Z,2.90
2022-10-05T07:17:56.752Z,2.50
2022-10-05T07:20:29.094Z,2.50
2022-10-05T07:23:04.200Z,3.23
2022-10-05T07:25:37.105Z,3.40
2022-10-05T07:28:09.010Z,2.20
2022-10-05T07:30:43.679Z,2.57
2022-10-05T07:33:20.161Z,2.30
2022-10-05T07:36:11.236Z,3.40
2022-10-05T07:38:43.436Z,1.73
2022-10-05T07:41:15.909Z,2.13
2022-10-05T07:44:01.994Z,3.70
2022-10-05T07:46:40.616Z,2.73
2022-10-05T07:49:18.097Z,2.90
2022-10-05T07:51:48.543Z,1.87
2022-10-05T07:54:21.740Z,3.10
2022-10-05T07:56:57.944Z,2.57
2022-10-05T07:59:30.742Z,2.10
2022-10-05T08:02:10.051Z,1.80
2022-10-05T08:04:43.766Z,2.40
2022-10-05T08:07:16.120Z,2.57
2022-10-05T08:09:50.334Z,2.40
2022-10-05T08:12:27.202Z,1.73
2022-10-05T08:14:59.294Z,2.20
2022-10-05T08:17:33.732Z,2.33
2022-10-05T08:20:21.515Z,1.67
2022-10-05T08:22:57.382Z,1.77
2022-10-05T08:25:28.222Z,1.40
2022-10-05T08:28:05.260Z,2.63
2022-10-05T08:30:37.332Z,2.30
2022-10-05T08:33:10.382Z,2.83
2022-10-05T08:35:40.969Z,1.63
2022-10-05T08:38:23.148Z,2.00
2022-10-05T08:41:09.939Z,1.73
2022-10-05T08:44:07.583Z,2.10
2022-10-05T08:46:58.503Z,2.07
2022-10-05T08:49:57.741Z,2.30
2022-10-05T08:52:29.275Z,1.93
2022-10-05T08:55:18.850Z,2.90
2022-10-05T08:57:54.976Z,1.40
2022-10-05T09:00:33.576Z,2.03
2022-10-05T09:03:38.227Z,1.97
2022-10-05T09:06:27.200Z,2.00
2022-10-05T09:09:17.702Z,3.00
2022-10-05T09:12:04.841Z,1.53
2022-10-05T09:14:43.221Z,1.97
2022-10-05T09:17:39.511Z,1.50
2022-10-05T09:20:38.722Z,1.90
2022-10-05T09:26:00.713Z,1.80
2022-10-05T09:28:49.650Z,1.67
2022-10-05T09:31:28.907Z,2.50
2022-10-05T09:34:20.476Z,1.50
2022-10-05T09:37:20.367Z,3.10
2022-10-05T09:40:11.130Z,1.50
2022-10-05T09:43:00.369Z,1.87
2022-10-05T09:45:54.406Z,2.30
2022-10-05T09:48:55.367Z,1.43
2022-10-05T09:51:40.677Z,2.13
2022-10-05T09:54:32.203Z,1.63
2022-10-05T09:57:20.030Z,1.77
2022-10-05T10:00:11.845Z,1.80
2022-10-05T10:03:03.390Z,1.73
2022-10-05T10:05:55.293Z,1.70
2022-10-05T10:08:46.399Z,1.40
2022-10-05T10:11:56.528Z,1.80
2022-10-05T10:14:58.226Z,1.50
2022-10-05T10:17:52.408Z,1.27
2022-10-05T10:20:31.454Z,2.50
2022-10-05T10:23:13.703Z,1.70
2022-10-05T10:25:59.691Z,1.30
2022-10-05T10:28:46.240Z,2.13
2022-10-05T10:31:59.659Z,2.03
2022-10-05T10:38:20.830Z,1.47
2022-10-05T10:41:00.407Z,2.00
2022-10-05T10:43:44.018Z,1.20
2022-10-05T10:46:22.763Z,1.97
2022-10-05T10:48:57.728Z,1.57
2022-10-05T10:51:34.112Z,1.33
2022-10-05T10:54:13.264Z,1.00
2022-10-05T10:56:52.132Z,0.90
2022-10-05T10:59:52.996Z,0.80
2022-10-05T11:02:47.743Z,1.07
2022-10-05T11:05:24.709Z,1.23
2022-10-05T11:08:05.029Z,0.60
2022-10-05T11:11:06.073Z,1.13
2022-10-05T11:14:09.670Z,0.70
2022-10-05T11:17:13.992Z,0.63
2022-10-05T11:20:04.898Z,1.20
2022-10-05T11:22:44.121Z,1.30
2022-10-05T11:25:31.948Z,1.07
2022-10-05T11:28:16.401Z,1.50
2022-10-05T11:30:58.560Z,0.70
2022-10-05T11:33:43.238Z,0.70
2022-10-05T11:36:34.033Z,0.70
2022-10-05T11:39:18.794Z,1.53
2022-10-05T11:41:59.460Z,0.97
2022-10-05T11:44:46.680Z,1.30
2022-10-05T11:47:19.770Z,1.47
2022-10-05T11:49:51.885Z,1.27
2022-10-05T11:52:26.308Z,1.00
2022-10-05T11:55:11.063Z,2.97
2022-10-05T11:57:45.666Z,0.77
2022-10-05T12:00:30.367Z,1.77
2022-10-05T12:03:19.165Z,0.77
2022-10-05T12:06:03.140Z,1.00
2022-10-05T12:08:39.446Z,0.60
2022-10-05T12:11:27.140Z,0.80
2022-10-05T12:14:00.385Z,0.97
2022-10-05T12:16:35.724Z,0.90
2022-10-05T12:19:08.725Z,1.17
2022-10-05T12:21:42.002Z,0.60
2022-10-05T12:24:16.731Z,0.67
2022-10-05T12:26:49.779Z,1.37
2022-10-05T12:29:23.151Z,1.50
2022-10-05T12:31:58.697Z,1.23
2022-10-05T12:34:32.885Z,1.30
2022-10-05T12:37:05.958Z,0.90
2022-10-05T12:39:41.671Z,1.10
2022-10-05T12:42:17.855Z,1.20
2022-10-05T12:44:55.195Z,1.13
2022-10-05T12:47:28.657Z,0.90
2022-10-05T12:50:03.292Z,0.70
2022-10-05T12:52:52.008Z,1.07
2022-10-05T12:55:28.059Z,1.20
2022-10-05T12:58:05.718Z,1.03
2022-10-05T13:00:35.993Z,1.10
2022-10-05T13:03:14.591Z,0.70
2022-10-05T13:05:47.764Z,0.63
2022-10-05T13:08:21.950Z,1.07
2022-10-05T13:11:02.637Z,0.70
2022-10-05T13:13:39.238Z,0.80
2022-10-05T13:16:16.789Z,0.90
2022-10-05T13:18:53.018Z,1.20
2022-10-05T13:21:26.764Z,0.93
2022-10-05T13:23:59.721Z,0.80
2022-10-05T13:26:34.755Z,0.80
2022-10-05T13:29:07.154Z,0.93
2022-10-05T13:31:40.149Z,0.70
2022-10-05T13:34:19.210Z,0.87
2022-10-05T13:36:54.462Z,0.70
2022-10-05T13:39:33.687Z,1.10
2022-10-05T13:42:08.921Z,1.03
2022-10-05T13:44:41.631Z,1.40
2022-10-05T13:47:17.648Z,1.47
2022-10-05T13:49:50.379Z,0.80
2022-10-05T13:52:26.049Z,1.13
2022-10-05T13:55:05.412Z,0.50
2022-10-05T13:57:57.792Z,0.73
2022-10-05T14:00:30.112Z,0.73
2022-10-05T14:03:02.211Z,0.53
2022-10-05T14:05:32.554Z,0.93
2022-10-05T14:08:18.966Z,0.63
2022-10-05T14:13:49.669Z,0.80
2022-10-05T14:16:25.168Z,0.63
2022-10-05T14:18:56.097Z,0.43
2022-10-05T14:21:26.413Z,0.40
2022-10-05T14:23:57.507Z,0.93
2022-10-05T14:26:36.856Z,1.10
2022-10-05T14:29:19.608Z,0.50
2022-10-05T14:31:52.837Z,0.60
2022-10-05T14:34:33.364Z,1.40
2022-10-05T14:37:05.051Z,1.20
2022-10-05T14:39:37.055Z,0.37
2022-10-05T14:42:17.973Z,0.50
2022-10-05T14:44:49.454Z,0.50
2022-10-05T14:47:24.373Z,0.53
2022-10-05T14:50:16.234Z,0.40
2022-10-05T14:52:51.671Z,0.50
2022-10-05T14:55:38.165Z,0.53
2022-10-05T14:58:19.120Z,0.40
2022-10-05T15:00:55.466Z,0.90
2022-10-05T15:03:38.138Z,0.60
2022-10-05T15:06:07.891Z,0.40
2022-10-05T15:08:45.351Z,0.60
2022-10-05T15:11:20.235Z,0.70
2022-10-05T15:13:50.042Z,0.57
2022-10-05T15:16:21.008Z,1.10
2022-10-05T15:18:56.953Z,0.90
2022-10-05T15:21:43.902Z,0.70
2022-10-05T15:24:18.059Z,0.67
2022-10-05T15:26:50.679Z,0.80
2022-10-05T15:29:41.129Z,0.97
2022-10-05T15:32:15.900Z,0.80
2022-10-05T15:34:50.561Z,0.77
2022-10-05T15:37:22.310Z,0.87
2022-10-05T15:39:55.811Z,0.80
2022-10-05T15:42:28.213Z,0.77
2022-10-05T15:45:05.877Z,2.70
2022-10-05T15:47:46.905Z,2.03
2022-10-05T15:50:22.441Z,1.17
2022-10-05T15:52:54.336Z,0.87
2022-10-05T15:55:28.304Z,0.77
2022-10-05T15:58:01.770Z,0.63
2022-10-05T16:00:32.640Z,0.70
2022-10-05T16:03:09.767Z,1.07
2022-10-05T16:06:00.699Z,0.60
2022-10-05T16:08:54.638Z,0.77
2022-10-05T16:11:32.618Z,1.00
2022-10-05T16:14:07.580Z,0.97
2022-10-05T16:16:42.493Z,0.90
2022-10-05T16:19:16.834Z,1.20
2022-10-05T16:21:52.241Z,1.30
2022-10-05T16:24:26.644Z,1.00
2022-10-05T16:26:59.705Z,1.13
2022-10-05T16:29:36.386Z,0.90
2022-10-05T16:32:08.362Z,0.90
2022-10-05T16:34:45.304Z,0.73
2022-10-05T16:37:19.861Z,1.20
2022-10-05T16:39:52.190Z,0.83
2022-10-05T16:42:27.799Z,1.10
2022-10-05T16:44:59.931Z,0.80
2022-10-05T16:47:42.824Z,0.90
2022-10-05T16:50:19.702Z,1.33
2022-10-05T16:52:55.054Z,0.73
2022-10-05T16:55:29.769Z,1.17
2022-10-05T16:58:14.323Z,0.93
2022-10-05T17:00:53.795Z,1.47
2022-10-05T17:03:31.882Z,1.07
2022-10-05T17:06:26.623Z,1.00
2022-10-05T17:09:14.569Z,1.90
2022-10-05T17:11:55.990Z,1.27
2022-10-05T17:14:35.942Z,0.90
2022-10-05T17:17:17.467Z,0.90
2022-10-05T17:19:50.980Z,4.60
2022-10-05T17:22:28.551Z,3.40
2022-10-05T17:25:01.983Z,1.23
2022-10-05T17:27:37.901Z,1.00
2022-10-05T17:30:25.618Z,1.00
2022-10-05T17:33:02.102Z,1.73
2022-10-05T17:35:46.699Z,0.77
2022-10-05T17:38:20.917Z,1.10
2022-10-05T17:41:13.899Z,1.37
2022-10-05T17:44:05.109Z,0.60
2022-10-05T17:46:42.128Z,1.00
2022-10-05T17:49:23.126Z,0.80
2022-10-05T17:52:17.567Z,1.13
2022-10-05T17:55:21.770Z,1.13
2022-10-05T17:57:58.866Z,0.67
2022-10-05T18:00:54.219Z,1.10
2022-10-05T18:03:51.813Z,1.20
2022-10-05T18:06:38.109Z,1.07
2022-10-05T18:09:38.156Z,1.07
2022-10-05T18:12:25.472Z,0.53
2022-10-05T18:15:04.782Z,0.70
2022-10-05T18:17:38.724Z,0.70
2022-10-05T18:20:23.549Z,0.67
2022-10-05T18:22:56.657Z,0.90
2022-10-05T18:25:32.757Z,0.80
2022-10-05T18:28:19.494Z,1.43
2022-10-05T18:31:12.983Z,0.60
2022-10-05T18:34:05.828Z,1.27
2022-10-05T18:36:59.249Z,1.00
2022-10-05T18:39:39.957Z,1.10
2022-10-05T18:42:12.103Z,0.60
2022-10-05T18:44:42.713Z,0.93
2022-10-05T18:47:22.563Z,0.93
2022-10-05T18:49:58.715Z,0.97
2022-10-05T18:52:33.388Z,0.90
2022-10-05T18:55:12.745Z,0.70
2022-10-05T18:57:50.364Z,1.60
2022-10-05T19:00:21.634Z,1.57
2022-10-05T19:02:54.463Z,0.90
2022-10-05T19:05:53.178Z,0.70
2022-10-05T19:08:29.954Z,1.50
2022-10-05T19:11:08.561Z,1.30
2022-10-05T19:13:43.760Z,0.87
2022-10-05T19:16:27.508Z,0.73
2022-10-05T19:19:04.749Z,1.77
2022-10-05T19:21:38.274Z,0.70
2022-10-05T19:24:14.881Z,1.17
2022-10-05T19:26:52.328Z,0.57
2022-10-05T19:29:27.679Z,1.20
2022-10-05T19:31:57.767Z,1.83
2022-10-05T19:34:34.776Z,1.37
2022-10-05T19:37:08.654Z,1.17
2022-10-05T19:39:41.502Z,0.93
2022-10-05T19:42:21.815Z,0.87
2022-10-05T19:44:57.755Z,0.97
2022-10-05T19:47:33.205Z,1.50
2022-10-05T19:50:07.825Z,1.03
2022-10-05T19:52:47.547Z,1.50
2022-10-05T19:55:28.394Z,0.93
2022-10-05T19:58:03.732Z,1.77
2022-10-05T20:00:34.152Z,1.50
2022-10-05T20:03:14.143Z,0.93
2022-10-05T20:05:43.272Z,1.00
2022-10-05T20:08:17.422Z,1.20
2022-10-05T20:10:46.869Z,1.07
2022-10-05T20:13:24.411Z,0.50
2022-10-05T20:16:27.743Z,0.70
2022-10-05T20:19:14.332Z,1.80
2022-10-05T20:21:45.459Z,0.73
2022-10-05T20:24:15.073Z,0.87
2022-10-05T20:27:07.167Z,0.80
2022-10-05T20:29:40.083Z,1.23
2022-10-05T20:32:10.122Z,0.90
2022-10-05T20:34:41.575Z,0.90
2022-10-05T20:37:11.053Z,0.50
2022-10-05T20:39:40.754Z,1.20
2022-10-05T20:42:12.589Z,0.77
2022-10-05T20:44:45.170Z,1.40
2022-10-05T20:47:18.000Z,0.77
2022-10-05T20:49:47.385Z,0.57
2022-10-05T20:52:16.796Z,1.10
2022-10-05T20:57:21.487Z,1.17
2022-10-05T20:59:52.859Z,0.80
2022-10-05T21:02:21.786Z,0.77
2022-10-05T21:04:51.037Z,1.93
2022-10-05T21:07:21.345Z,1.20
2022-10-05T21:09:51.863Z,1.03
2022-10-05T21:12:20.740Z,0.70
2022-10-05T21:14:49.666Z,1.37
2022-10-05T21:17:20.565Z,1.00
2022-10-05T21:19:54.188Z,0.53
2022-10-05T21:22:23.703Z,0.90
2022-10-05T21:24:52.621Z,0.90
2022-10-05T21:27:21.832Z,1.10
2022-10-05T21:29:52.022Z,0.77
2022-10-05T21:32:23.656Z,0.90
2022-10-05T21:34:52.717Z,0.80
2022-10-05T21:37:21.645Z,1.17
2022-10-05T21:39:50.888Z,1.77
2022-10-05T21:42:19.924Z,0.70
2022-10-05T21:44:48.918Z,1.20
2022-10-05T21:47:18.195Z,1.00
2022-10-05T21:49:48.950Z,2.20
2022-10-05T21:52:18.660Z,0.97
2022-10-05T21:54:48.588Z,1.07
2022-10-05T21:57:19.147Z,0.90
2022-10-05T21:59:48.051Z,0.73
2022-10-05T22:02:17.042Z,0.77
2022-10-05T22:04:45.881Z,0.80
2022-10-05T22:07:19.716Z,0.70
2022-10-05T22:09:49.413Z,0.70
2022-10-05T22:12:19.968Z,0.80
2022-10-05T22:14:48.970Z,0.67
2022-10-05T22:17:20.480Z,0.43
2022-10-05T22:19:49.387Z,1.10
2022-10-05T22:22:21.649Z,0.70
2022-10-05T22:24:50.702Z,0.40
2022-10-05T22:27:19.540Z,0.50
2022-10-05T22:29:50.125Z,0.60
2022-10-05T22:32:19.036Z,0.87
2022-10-05T22:34:48.007Z,0.40
2022-10-05T22:37:17.264Z,0.77
2022-10-05T22:39:48.504Z,0.90
2022-10-05T22:42:17.631Z,0.67
2022-10-05T22:44:46.931Z,1.07
2022-10-05T22:47:16.151Z,1.83
2022-10-05T22:49:45.213Z,0.97
2022-10-05T22:52:14.525Z,0.80
2022-10-05T22:54:43.791Z,1.30
2022-10-05T22:57:15.086Z,1.00
2022-10-05T22:59:45.508Z,0.83
2022-10-05T23:02:15.476Z,1.77
2022-10-05T23:04:44.327Z,1.30
2022-10-05T23:07:13.361Z,2.30
2022-10-05T23:09:42.642Z,1.53
2022-10-05T23:12:11.787Z,1.50
2022-10-05T23:14:42.367Z,0.50
2022-10-05T23:17:11.412Z,0.40
2022-10-05T23:19:41.011Z,0.67
2022-10-05T23:22:10.187Z,0.53
2022-10-05T23:24:39.080Z,0.60
2022-10-05T23:27:08.180Z,0.70
2022-10-05T23:29:37.105Z,0.43
2022-10-05T23:32:08.188Z,0.30
2022-10-05T23:34:37.062Z,0.53
2022-10-05T23:37:06.333Z,0.40
2022-10-05T23:39:35.261Z,0.53
2022-10-05T23:42:04.341Z,0.87
2022-10-05T23:44:33.225Z,0.87
2022-10-05T23:47:02.366Z,0.60
2022-10-05T23:49:32.742Z,0.70
2022-10-05T23:52:01.659Z,0.77
2022-10-05T23:54:30.587Z,0.40
2022-10-05T23:56:59.529Z,0.30
2022-10-05T23:59:28.898Z,0.40
